Terminal Aerodrome Forecast
Issued by NWS

Home | Current Version | Previous Version | Text Only | Print | Product List | Glossary On
Versions: 1 2 3 4 5 6 7 8 9 10 11 12 13 14 15 16 17 18
000
FTUS43 KGLD 310539
TAFMCK
TAF
KMCK 310539Z 3106/0106 VRB06KT P6SM VCSH BKN100 OVC250
     FM310900 35012KT 3SM BR OVC010
     FM311300 03012G18KT P6SM BKN020
     FM311800 03012KT P6SM SCT060=

USA.gov is the U.S. government's official web portal to all federal, state and local government web resources and services.